Time;durP1;ratioP1;P1;durP2;ratioP2;P2;SDS_P1;SDS_P2;PMS_P1;PMS_P2;Temp;Humidity;BMP_temperature;BMP_pressure;BME280_temperature;BME280_humidity;BME280_pressure;Samples;Min_cycle;Max_cycle;Signal;HPM_P1;HPM_P2
2023/05/28 00:02:17;;;;;;;;;;;19.90;59.90;;;;;;6271618;28;20118;-69
2023/05/28 00:05:17;;;;;;;;;;;19.90;59.90;;;;;;6271629;28;20345;-69
2023/05/28 00:08:18;;;;;;;;;;;19.90;59.90;;;;;;6271385;28;19909;-70
2023/05/28 00:11:18;;;;;;;;;;;19.90;59.90;;;;;;6271860;28;19909;-69
2023/05/28 00:14:19;;;;;;;;;;;19.90;60.00;;;;;;6271100;28;19936;-69
2023/05/28 00:17:20;;;;;;;;;;;19.90;59.90;;;;;;6271456;28;20013;-70
2023/05/28 00:20:21;;;;;;;;;;;19.90;59.90;;;;;;6267841;28;20588;-69
2023/05/28 00:23:21;;;;;;;;;;;19.90;59.90;;;;;;6270915;28;19924;-70
2023/05/28 00:26:22;;;;;;;;;;;19.90;60.00;;;;;;6271489;28;19920;-69
2023/05/28 00:29:24;;;;;;;;;;;19.90;60.00;;;;;;6270916;28;20021;-70
2023/05/28 00:32:24;;;;;;;;;;;19.90;59.90;;;;;;6270889;28;19916;-70
2023/05/28 00:35:25;;;;;;;;;;;19.90;60.70;;;;;;6271180;28;20322;-69
2023/05/28 00:38:26;;;;;;;;;;;19.90;60.00;;;;;;6269250;28;20330;-69
2023/05/28 00:41:26;;;;;;;;;;;19.90;59.90;;;;;;6271196;28;19939;-70
2023/05/28 00:44:27;;;;;;;;;;;19.90;59.90;;;;;;6270741;28;19938;-69
2023/05/28 00:47:28;;;;;;;;;;;19.90;59.90;;;;;;6270553;28;20445;-69
2023/05/28 00:50:28;;;;;;;;;;;19.90;59.90;;;;;;6270839;28;19959;-70
2023/05/28 00:53:29;;;;;;;;;;;19.90;59.90;;;;;;6269834;28;19932;-69
2023/05/28 00:56:31;;;;;;;;;;;19.90;59.90;;;;;;6270633;28;19916;-70
2023/05/28 00:59:34;;;;;;;;;;;19.90;60.00;;;;;;6270514;28;19922;-70
2023/05/28 01:02:35;;;;;;;;;;;19.90;60.00;;;;;;6270024;28;19917;-70
2023/05/28 01:05:36;;;;;;;;;;;19.90;60.00;;;;;;6270069;28;19909;-69
2023/05/28 01:08:37;;;;;;;;;;;19.90;60.00;;;;;;6268545;28;19979;-70
2023/05/28 01:11:39;;;;;;;;;;;19.90;60.00;;;;;;6270432;28;19909;-70
2023/05/28 01:14:40;;;;;;;;;;;19.90;60.00;;;;;;6269965;28;19915;-69
2023/05/28 01:17:41;;;;;;;;;;;19.90;60.00;;;;;;6269878;28;19908;-70
2023/05/28 01:20:41;;;;;;;;;;;19.90;60.00;;;;;;6270210;28;19967;-70
2023/05/28 01:23:45;;;;;;;;;;;19.90;60.00;;;;;;6269829;28;20260;-69
2023/05/28 01:26:45;;;;;;;;;;;19.90;60.00;;;;;;6269870;28;19913;-69
2023/05/28 01:29:46;;;;;;;;;;;19.90;60.00;;;;;;6269598;28;19970;-70
2023/05/28 01:32:46;;;;;;;;;;;19.90;60.00;;;;;;6269499;28;19909;-69
2023/05/28 01:35:47;;;;;;;;;;;19.90;60.00;;;;;;6269284;28;20427;-69
2023/05/28 01:38:48;;;;;;;;;;;19.90;60.00;;;;;;6269480;28;19916;-70
2023/05/28 01:41:49;;;;;;;;;;;19.90;60.00;;;;;;6269573;28;20312;-70
2023/05/28 01:44:50;;;;;;;;;;;19.90;60.00;;;;;;6268865;28;19991;-69
2023/05/28 01:47:51;;;;;;;;;;;19.90;60.00;;;;;;6269342;28;19948;-69
2023/05/28 01:50:52;;;;;;;;;;;19.90;59.90;;;;;;6269293;28;20375;-70
2023/05/28 01:53:52;;;;;;;;;;;19.90;60.00;;;;;;6268500;28;19921;-70
2023/05/28 01:56:53;;;;;;;;;;;19.90;60.00;;;;;;6269420;28;20253;-69
2023/05/28 01:59:53;;;;;;;;;;;19.90;60.00;;;;;;6268722;28;19982;-69
2023/05/28 02:02:54;;;;;;;;;;;19.90;60.00;;;;;;6269420;28;19942;-69
2023/05/28 02:05:55;;;;;;;;;;;19.90;60.00;;;;;;6268374;28;20354;-70
2023/05/28 02:08:56;;;;;;;;;;;19.90;60.00;;;;;;6269006;28;19909;-70
2023/05/28 02:11:59;;;;;;;;;;;19.90;60.00;;;;;;6269070;28;19909;-69
2023/05/28 02:14:59;;;;;;;;;;;19.90;60.00;;;;;;6268587;28;19909;-70
2023/05/28 02:18:01;;;;;;;;;;;19.90;60.00;;;;;;6269164;28;20412;-69
2023/05/28 02:21:02;;;;;;;;;;;19.90;60.00;;;;;;6268506;28;20371;-69
2023/05/28 02:24:03;;;;;;;;;;;19.90;60.00;;;;;;6268735;28;19917;-69
2023/05/28 02:27:05;;;;;;;;;;;19.90;60.00;;;;;;6268839;28;19912;-69
2023/05/28 02:30:06;;;;;;;;;;;19.90;60.00;;;;;;6268113;28;19962;-69
2023/05/28 02:33:07;;;;;;;;;;;19.90;60.00;;;;;;6269218;28;19944;-70
2023/05/28 02:36:08;;;;;;;;;;;19.90;60.00;;;;;;6267922;28;19915;-70
2023/05/28 02:39:10;;;;;;;;;;;19.90;60.00;;;;;;6268182;28;19912;-70
2023/05/28 02:42:10;;;;;;;;;;;19.90;60.00;;;;;;6268217;28;19967;-69
2023/05/28 02:45:11;;;;;;;;;;;19.90;60.00;;;;;;6268086;28;20514;-70
2023/05/28 02:48:11;;;;;;;;;;;19.90;60.00;;;;;;6268321;28;19913;-70
2023/05/28 02:51:12;;;;;;;;;;;19.90;60.00;;;;;;6267914;28;19916;-70
2023/05/28 02:54:12;;;;;;;;;;;19.90;60.00;;;;;;6268038;28;20003;-70
2023/05/28 02:57:13;;;;;;;;;;;19.90;60.00;;;;;;6273242;28;19909;-70
2023/05/28 03:00:14;;;;;;;;;;;19.90;60.00;;;;;;6273272;28;19944;-70
2023/05/28 03:03:15;;;;;;;;;;;19.90;60.00;;;;;;6272981;28;19997;-70
2023/05/28 03:06:16;;;;;;;;;;;19.90;60.00;;;;;;6272953;28;19966;-70
2023/05/28 03:09:16;;;;;;;;;;;19.90;60.00;;;;;;6273009;28;20099;-69
2023/05/28 03:12:17;;;;;;;;;;;19.90;60.00;;;;;;6273017;28;19998;-69
2023/05/28 03:15:17;;;;;;;;;;;19.90;60.00;;;;;;6272556;28;20410;-70
2023/05/28 03:18:18;;;;;;;;;;;19.90;60.00;;;;;;6273113;28;19913;-70
2023/05/28 03:21:18;;;;;;;;;;;19.90;60.00;;;;;;6272562;28;19916;-70
2023/05/28 03:24:19;;;;;;;;;;;19.90;60.00;;;;;;6272605;28;20011;-69
2023/05/28 03:27:19;;;;;;;;;;;19.90;60.00;;;;;;6271047;28;19909;-70
2023/05/28 03:30:21;;;;;;;;;;;19.90;60.00;;;;;;6272630;28;19913;-70
2023/05/28 03:33:21;;;;;;;;;;;19.90;60.00;;;;;;6272624;28;19909;-69
2023/05/28 03:36:22;;;;;;;;;;;19.90;60.00;;;;;;6272371;28;19909;-70
2023/05/28 03:39:22;;;;;;;;;;;19.90;60.00;;;;;;6272604;28;19943;-70
2023/05/28 03:42:23;;;;;;;;;;;19.90;60.00;;;;;;6272118;28;19920;-69
2023/05/28 03:45:23;;;;;;;;;;;19.90;60.00;;;;;;6272150;28;20007;-69
2023/05/28 03:48:24;;;;;;;;;;;19.90;60.00;;;;;;6272335;28;19917;-70
2023/05/28 03:51:25;;;;;;;;;;;19.90;60.00;;;;;;6271608;28;19920;-69
2023/05/28 03:54:25;;;;;;;;;;;19.90;60.00;;;;;;6272297;28;19921;-69
2023/05/28 03:57:26;;;;;;;;;;;19.90;60.00;;;;;;6272034;28;19915;-69
2023/05/28 04:00:38;;;;;;;;;;;19.80;59.90;;;;;;6271564;28;19909;-69
2023/05/28 04:03:39;;;;;;;;;;;19.90;60.00;;;;;;6271939;28;19967;-70
2023/05/28 04:06:39;;;;;;;;;;;19.90;60.00;;;;;;6270976;28;19908;-70
2023/05/28 04:09:40;;;;;;;;;;;19.90;60.00;;;;;;6271553;28;19913;-70
2023/05/28 04:12:40;;;;;;;;;;;19.90;60.00;;;;;;6271687;28;19913;-70
2023/05/28 04:15:41;;;;;;;;;;;19.90;60.00;;;;;;6271316;28;19913;-69
2023/05/28 04:18:42;;;;;;;;;;;19.80;59.90;;;;;;6271382;28;19913;-69
2023/05/28 04:21:42;;;;;;;;;;;19.90;60.00;;;;;;6270908;28;19947;-69
2023/05/28 04:24:43;;;;;;;;;;;19.90;60.00;;;;;;6271186;28;20322;-69
2023/05/28 04:27:44;;;;;;;;;;;19.90;60.00;;;;;;6271414;28;20351;-69
2023/05/28 04:30:44;;;;;;;;;;;19.90;60.00;;;;;;6270560;28;19909;-69
2023/05/28 04:33:47;;;;;;;;;;;19.90;60.00;;;;;;6270727;28;19944;-69
2023/05/28 04:36:48;;;;;;;;;;;19.90;60.00;;;;;;6270557;28;19944;-70
2023/05/28 04:39:48;;;;;;;;;;;19.90;60.00;;;;;;6271184;28;19912;-70
2023/05/28 04:42:49;;;;;;;;;;;19.90;60.00;;;;;;6270589;28;19921;-70
2023/05/28 04:45:49;;;;;;;;;;;19.90;60.00;;;;;;6270851;28;19909;-70
2023/05/28 04:48:50;;;;;;;;;;;19.80;59.90;;;;;;6270599;28;19966;-69
2023/05/28 04:51:51;;;;;;;;;;;19.90;60.00;;;;;;6270871;28;19967;-69
2023/05/28 04:54:51;;;;;;;;;;;19.90;60.00;;;;;;6270254;28;19936;-69
2023/05/28 04:57:52;;;;;;;;;;;19.90;60.00;;;;;;6270666;28;19954;-70
2023/05/28 05:00:53;;;;;;;;;;;19.90;60.00;;;;;;6269407;28;20002;-70
2023/05/28 05:03:53;;;;;;;;;;;19.90;60.00;;;;;;6270130;28;19921;-69
2023/05/28 05:06:54;;;;;;;;;;;19.90;60.00;;;;;;6270252;28;19908;-69
2023/05/28 05:09:55;;;;;;;;;;;19.90;60.00;;;;;;6270128;28;19909;-69
2023/05/28 05:12:55;;;;;;;;;;;19.80;59.90;;;;;;6270306;28;19909;-69
2023/05/28 05:15:56;;;;;;;;;;;19.90;60.00;;;;;;6266407;28;20011;-70
2023/05/28 05:18:57;;;;;;;;;;;19.90;60.00;;;;;;6269284;28;20232;-70
2023/05/28 05:21:57;;;;;;;;;;;19.90;60.00;;;;;;6269676;28;20431;-70
2023/05/28 05:24:58;;;;;;;;;;;19.90;60.00;;;;;;6269968;28;19909;-70
2023/05/28 05:27:58;;;;;;;;;;;19.90;60.00;;;;;;6269698;28;19948;-70
2023/05/28 05:30:59;;;;;;;;;;;19.90;60.00;;;;;;6269394;28;19935;-69
2023/05/28 05:34:00;;;;;;;;;;;19.90;60.00;;;;;;6269763;28;19947;-70
2023/05/28 05:37:00;;;;;;;;;;;19.80;59.90;;;;;;6251107;28;19913;-69
2023/05/28 05:40:01;;;;;;;;;;;19.80;59.90;;;;;;6269881;28;20103;-69
2023/05/28 05:43:01;;;;;;;;;;;19.90;60.00;;;;;;6268896;28;20144;-70
2023/05/28 05:46:02;;;;;;;;;;;19.90;60.00;;;;;;6269596;28;19912;-70
2023/05/28 05:49:03;;;;;;;;;;;19.90;60.00;;;;;;6269312;28;19955;-70
2023/05/28 05:52:03;;;;;;;;;;;19.90;60.00;;;;;;6269764;28;19908;-70
2023/05/28 05:55:04;;;;;;;;;;;19.90;60.00;;;;;;6264984;28;19921;-70
2023/05/28 05:58:04;;;;;;;;;;;19.90;60.00;;;;;;6269559;28;20221;-69
2023/05/28 06:01:05;;;;;;;;;;;19.90;60.00;;;;;;6268980;28;20419;-70
2023/05/28 06:04:06;;;;;;;;;;;19.90;60.00;;;;;;6269165;28;19924;-70
2023/05/28 06:07:06;;;;;;;;;;;19.90;60.00;;;;;;6268722;28;20301;-69
2023/05/28 06:10:07;;;;;;;;;;;19.90;60.00;;;;;;6269083;28;19909;-69
2023/05/28 06:13:07;;;;;;;;;;;19.90;60.00;;;;;;6268626;28;19959;-70
2023/05/28 06:16:08;;;;;;;;;;;19.90;60.00;;;;;;6269037;28;19999;-70
2023/05/28 06:19:08;;;;;;;;;;;19.90;60.00;;;;;;6268485;28;19909;-70
2023/05/28 06:22:10;;;;;;;;;;;19.90;60.00;;;;;;6268696;28;20429;-70
2023/05/28 06:25:11;;;;;;;;;;;19.90;60.00;;;;;;6264942;28;19958;-70
2023/05/28 06:28:12;;;;;;;;;;;19.90;60.00;;;;;;6268366;28;19916;-70
2023/05/28 06:31:12;;;;;;;;;;;19.90;60.00;;;;;;6268042;28;19913;-70
2023/05/28 06:34:13;;;;;;;;;;;19.90;60.00;;;;;;6268515;28;19963;-69
2023/05/28 06:37:13;;;;;;;;;;;19.90;60.00;;;;;;6268075;28;19913;-70
2023/05/28 06:40:14;;;;;;;;;;;19.90;60.00;;;;;;6268286;28;19916;-70
2023/05/28 06:43:14;;;;;;;;;;;19.90;60.00;;;;;;6268098;28;20375;-69
2023/05/28 06:46:15;;;;;;;;;;;19.90;60.00;;;;;;6263212;28;19991;-69
2023/05/28 06:49:16;;;;;;;;;;;19.90;60.00;;;;;;6268080;28;19909;-69
2023/05/28 06:52:18;;;;;;;;;;;19.90;60.00;;;;;;6267746;28;19935;-69
2023/05/28 06:55:19;;;;;;;;;;;19.90;60.00;;;;;;6243808;28;20284;-69
2023/05/28 06:58:20;;;;;;;;;;;19.90;60.00;;;;;;6243261;28;19909;-69
2023/05/28 07:01:20;;;;;;;;;;;19.90;60.00;;;;;;6242878;28;19945;-70
2023/05/28 07:04:21;;;;;;;;;;;19.90;60.00;;;;;;6223590;28;19932;-69
2023/05/28 07:07:21;;;;;;;;;;;19.80;59.90;;;;;;6221631;28;19917;-70
2023/05/28 07:10:22;;;;;;;;;;;19.90;60.00;;;;;;6241649;28;19909;-69
2023/05/28 07:13:22;;;;;;;;;;;19.90;60.00;;;;;;6241471;28;20367;-69
2023/05/28 07:16:23;;;;;;;;;;;19.80;59.90;;;;;;6241125;28;20403;-69
2023/05/28 07:19:23;;;;;;;;;;;19.90;60.00;;;;;;6240966;28;20012;-70
2023/05/28 07:22:25;;;;;;;;;;;19.90;60.00;;;;;;6241503;28;19921;-70
2023/05/28 07:25:25;;;;;;;;;;;19.80;59.90;;;;;;6241475;28;19924;-70
2023/05/28 07:28:26;;;;;;;;;;;19.90;60.00;;;;;;6241612;28;20280;-70
2023/05/28 07:31:28;;;;;;;;;;;19.90;60.00;;;;;;6241219;28;19967;-70
2023/05/28 07:34:28;;;;;;;;;;;19.90;60.00;;;;;;6240815;28;19952;-70
2023/05/28 07:37:29;;;;;;;;;;;19.90;60.00;;;;;;6231959;28;19912;-70
2023/05/28 07:40:29;;;;;;;;;;;19.90;60.00;;;;;;6241051;28;19920;-70
2023/05/28 07:43:30;;;;;;;;;;;19.90;60.00;;;;;;6245003;28;20384;-70
2023/05/28 07:46:30;;;;;;;;;;;19.90;60.00;;;;;;6245818;28;19913;-70
2023/05/28 07:49:31;;;;;;;;;;;19.90;60.00;;;;;;6246405;28;19913;-70
2023/05/28 07:52:31;;;;;;;;;;;19.90;60.00;;;;;;6246460;28;20606;-70
2023/05/28 07:55:32;;;;;;;;;;;19.90;60.00;;;;;;6261040;28;19916;-70
2023/05/28 07:58:32;;;;;;;;;;;19.90;60.00;;;;;;6270144;28;20363;-70
2023/05/28 08:01:33;;;;;;;;;;;19.90;60.00;;;;;;6270080;28;19956;-70
2023/05/28 08:04:34;;;;;;;;;;;19.90;60.00;;;;;;6266840;28;19927;-70
2023/05/28 08:07:35;;;;;;;;;;;19.90;60.00;;;;;;6269437;28;20457;-70
2023/05/28 08:10:35;;;;;;;;;;;19.90;60.00;;;;;;6270249;28;19951;-70
2023/05/28 08:13:36;;;;;;;;;;;19.90;60.00;;;;;;6270004;28;19912;-69
2023/05/28 08:16:36;;;;;;;;;;;19.90;60.00;;;;;;6269727;28;19963;-70
2023/05/28 08:19:38;;;;;;;;;;;19.90;60.00;;;;;;6269992;28;20390;-69
2023/05/28 08:22:39;;;;;;;;;;;19.90;60.00;;;;;;6268999;28;20334;-69
2023/05/28 08:25:40;;;;;;;;;;;19.90;60.00;;;;;;6269318;28;20386;-69
2023/05/28 08:28:41;;;;;;;;;;;19.90;60.00;;;;;;6269583;28;19913;-70
2023/05/28 08:31:41;;;;;;;;;;;19.90;60.00;;;;;;6266294;28;20379;-70
2023/05/28 08:34:42;;;;;;;;;;;19.90;60.00;;;;;;6269228;28;19966;-69
2023/05/28 08:37:42;;;;;;;;;;;19.90;60.00;;;;;;6269126;28;20003;-70
2023/05/28 08:40:43;;;;;;;;;;;19.90;60.00;;;;;;6269112;28;19909;-70
2023/05/28 08:43:44;;;;;;;;;;;19.90;60.00;;;;;;6268970;28;19962;-70
2023/05/28 08:46:45;;;;;;;;;;;19.90;60.00;;;;;;6269026;28;20287;-70
2023/05/28 08:49:50;;;;;;;;;;;19.90;60.00;;;;;;6269470;28;20021;-70
2023/05/28 08:52:51;;;;;;;;;;;19.90;60.00;;;;;;6267892;28;19924;-70
2023/05/28 08:55:51;;;;;;;;;;;19.90;60.00;;;;;;6268826;28;19928;-70
2023/05/28 08:58:52;;;;;;;;;;;19.90;60.00;;;;;;6253810;28;20743;-69
2023/05/28 09:01:52;;;;;;;;;;;19.80;59.90;;;;;;6264371;28;19912;-71
2023/05/28 09:04:56;;;;;;;;;;;19.90;60.60;;;;;;6253219;28;19913;-70
2023/05/28 09:07:56;;;;;;;;;;;19.90;60.10;;;;;;6268463;28;19993;-73
2023/05/28 09:10:57;;;;;;;;;;;20.00;59.70;;;;;;6268717;28;19966;-70
2023/05/28 09:13:57;;;;;;;;;;;20.10;59.70;;;;;;6268413;28;19955;-70
2023/05/28 09:16:58;;;;;;;;;;;20.10;59.70;;;;;;6267483;28;19915;-70
2023/05/28 09:19:59;;;;;;;;;;;20.10;59.70;;;;;;6268334;28;19920;-70
2023/05/28 09:23:01;;;;;;;;;;;20.10;59.70;;;;;;6266080;28;20367;-70
2023/05/28 09:26:02;;;;;;;;;;;20.10;59.70;;;;;;6269398;28;20003;-69
2023/05/28 09:29:10;;;;;;;;;;;20.10;59.70;;;;;;6269674;28;19948;-69
2023/05/28 09:32:11;;;;;;;;;;;20.20;59.90;;;;;;6269115;28;19916;-69
2023/05/28 09:35:11;;;;;;;;;;;20.20;59.80;;;;;;6269575;28;19913;-70
2023/05/28 09:38:12;;;;;;;;;;;20.20;59.80;;;;;;6268958;28;19948;-69
2023/05/28 09:41:20;;;;;;;;;;;20.20;59.70;;;;;;6269737;28;19909;-69
2023/05/28 09:44:20;;;;;;;;;;;20.10;59.70;;;;;;6268545;28;19928;-69
2023/05/28 09:47:21;;;;;;;;;;;20.10;59.70;;;;;;6268254;28;19909;-69
2023/05/28 09:50:22;;;;;;;;;;;20.20;59.70;;;;;;6269379;28;20532;-69
2023/05/28 09:53:23;;;;;;;;;;;20.20;59.80;;;;;;6268374;28;19927;-69
2023/05/28 09:56:29;;;;;;;;;;;20.20;59.90;;;;;;6269716;28;20299;-69
2023/05/28 09:59:31;;;;;;;;;;;20.20;60.50;;;;;;6268687;28;19966;-69
2023/05/28 10:02:38;;;;;;;;;;;20.20;59.70;;;;;;6268699;28;20279;-69
2023/05/28 10:05:40;;;;;;;;;;;20.20;59.70;;;;;;6268345;28;19908;-69
2023/05/28 10:08:42;;;;;;;;;;;20.20;59.70;;;;;;6268351;28;20385;-69
2023/05/28 10:11:48;;;;;;;;;;;20.20;59.70;;;;;;6268997;28;19909;-69
2023/05/28 10:14:48;;;;;;;;;;;20.20;59.70;;;;;;6268284;28;20368;-70
2023/05/28 10:17:50;;;;;;;;;;;20.20;59.80;;;;;;6268613;28;19920;-69
2023/05/28 10:20:51;;;;;;;;;;;20.10;59.70;;;;;;6268707;28;19909;-69
2023/05/28 10:23:51;;;;;;;;;;;20.10;59.70;;;;;;6267840;28;19982;-69
2023/05/28 10:26:55;;;;;;;;;;;20.10;59.70;;;;;;6268797;28;19913;-69
2023/05/28 10:29:55;;;;;;;;;;;20.10;59.80;;;;;;6245338;28;19909;-69
2023/05/28 10:32:56;;;;;;;;;;;20.10;60.20;;;;;;6247714;28;20307;-69
2023/05/28 10:35:58;;;;;;;;;;;20.10;59.80;;;;;;6268106;28;19917;-69
2023/05/28 10:38:59;;;;;;;;;;;20.10;59.80;;;;;;6268251;28;19913;-69
2023/05/28 10:42:00;;;;;;;;;;;20.10;59.80;;;;;;6268247;28;19924;-69
2023/05/28 10:45:03;;;;;;;;;;;20.10;59.80;;;;;;6267566;28;19915;-69
2023/05/28 10:48:05;;;;;;;;;;;20.10;59.90;;;;;;6268244;28;20375;-69
2023/05/28 10:51:06;;;;;;;;;;;20.00;59.80;;;;;;6268161;28;20432;-69
2023/05/28 10:54:14;;;;;;;;;;;20.10;59.80;;;;;;6267010;28;19924;-69
2023/05/28 10:57:15;;;;;;;;;;;20.10;59.80;;;;;;6268001;28;19909;-69
2023/05/28 11:00:23;;;;;;;;;;;20.10;59.80;;;;;;6267829;28;20538;-69
2023/05/28 11:03:42;;;;;;;;;;;20.10;59.90;;;;;;6267659;28;19920;-69
2023/05/28 11:06:44;;;;;;;;;;;20.00;59.80;;;;;;6268317;28;20291;-69
2023/05/28 11:09:49;;;;;;;;;;;20.00;59.80;;;;;;6267591;28;19962;-69
2023/05/28 11:12:50;;;;;;;;;;;20.00;59.90;;;;;;6267983;28;20287;-69
2023/05/28 11:15:50;;;;;;;;;;;20.00;59.80;;;;;;6267477;28;19951;-69
2023/05/28 11:19:04;;;;;;;;;;;20.00;59.90;;;;;;6272276;28;19988;-69
2023/05/28 11:22:05;;;;;;;;;;;20.00;59.90;;;;;;6273133;28;20291;-69
2023/05/28 11:25:07;;;;;;;;;;;20.00;59.90;;;;;;6271711;28;19909;-69
2023/05/28 11:28:08;;;;;;;;;;;20.00;59.90;;;;;;6273156;28;19915;-69
2023/05/28 11:31:08;;;;;;;;;;;20.00;59.90;;;;;;6272275;28;19935;-69
2023/05/28 11:34:09;;;;;;;;;;;20.00;59.90;;;;;;6272170;28;19990;-70
2023/05/28 11:37:10;;;;;;;;;;;20.00;60.00;;;;;;6272503;28;19909;-69
2023/05/28 11:40:11;;;;;;;;;;;20.00;60.80;;;;;;6271936;28;19915;-69
2023/05/28 11:43:12;;;;;;;;;;;20.00;59.80;;;;;;6263636;28;19932;-69
2023/05/28 11:46:12;;;;;;;;;;;20.00;59.80;;;;;;6254462;28;19952;-69
2023/05/28 11:49:13;;;;;;;;;;;20.00;59.80;;;;;;6271794;28;20394;-69
2023/05/28 11:52:17;;;;;;;;;;;20.10;59.90;;;;;;6272676;28;19913;-69
2023/05/28 11:55:18;;;;;;;;;;;20.10;59.90;;;;;;6270943;28;20445;-70
2023/05/28 11:58:28;;;;;;;;;;;20.10;59.80;;;;;;6271859;28;19917;-70
2023/05/28 12:01:33;;;;;;;;;;;20.20;60.30;;;;;;6267073;28;19978;-70
2023/05/28 12:04:33;;;;;;;;;;;20.30;59.40;;;;;;6271274;28;20002;-69
2023/05/28 12:07:35;;;;;;;;;;;20.40;59.50;;;;;;6272092;28;19908;-69
2023/05/28 12:10:35;;;;;;;;;;;20.30;59.40;;;;;;6271342;28;19940;-69
2023/05/28 12:13:37;;;;;;;;;;;20.30;59.50;;;;;;6271553;28;19951;-69
2023/05/28 12:16:47;;;;;;;;;;;20.20;59.50;;;;;;6271119;28;19959;-70
2023/05/28 12:19:48;;;;;;;;;;;20.20;59.50;;;;;;6271166;28;19972;-70
2023/05/28 12:23:06;;;;;;;;;;;20.30;59.60;;;;;;6271221;28;20367;-70
2023/05/28 12:26:13;;;;;;;;;;;20.20;59.60;;;;;;6270582;28;19909;-70
2023/05/28 12:29:14;;;;;;;;;;;20.20;59.50;;;;;;6270902;28;19909;-69
2023/05/28 12:32:15;;;;;;;;;;;20.20;59.60;;;;;;6270533;28;19913;-69
2023/05/28 12:35:15;;;;;;;;;;;20.20;59.50;;;;;;6270455;28;19925;-69
2023/05/28 12:38:16;;;;;;;;;;;20.20;59.60;;;;;;6271226;28;19909;-70
2023/05/28 12:41:17;;;;;;;;;;;20.20;59.50;;;;;;6270701;28;19909;-69
2023/05/28 12:44:17;;;;;;;;;;;20.20;59.50;;;;;;6270683;28;19960;-70
2023/05/28 12:47:18;;;;;;;;;;;20.20;59.50;;;;;;6270605;28;19986;-69
2023/05/28 12:50:19;;;;;;;;;;;20.20;59.50;;;;;;6270328;28;19909;-69
2023/05/28 12:53:20;;;;;;;;;;;20.30;59.60;;;;;;6270557;28;19969;-69
2023/05/28 12:56:20;;;;;;;;;;;20.30;59.60;;;;;;6270356;28;19920;-69
2023/05/28 12:59:22;;;;;;;;;;;20.20;59.50;;;;;;6270552;28;19913;-69
2023/05/28 13:02:22;;;;;;;;;;;20.20;59.60;;;;;;6270102;28;19917;-69
2023/05/28 13:05:23;;;;;;;;;;;20.20;59.60;;;;;;6270234;28;19912;-69
2023/05/28 13:08:23;;;;;;;;;;;20.20;59.60;;;;;;6269977;28;19909;-69
2023/05/28 13:11:24;;;;;;;;;;;20.20;59.60;;;;;;6266897;28;20555;-69
2023/05/28 13:14:24;;;;;;;;;;;20.20;59.70;;;;;;6270211;28;19919;-69
2023/05/28 13:17:25;;;;;;;;;;;20.20;59.70;;;;;;6269836;28;19909;-69
2023/05/28 13:20:25;;;;;;;;;;;20.20;59.70;;;;;;6269792;28;19909;-69
2023/05/28 13:23:26;;;;;;;;;;;20.20;59.80;;;;;;6269074;28;19917;-69
2023/05/28 13:26:27;;;;;;;;;;;20.20;59.60;;;;;;6269396;28;19909;-70
2023/05/28 13:29:28;;;;;;;;;;;20.30;59.50;;;;;;6270337;28;19909;-70
2023/05/28 13:32:28;;;;;;;;;;;20.30;59.40;;;;;;6269181;28;19947;-70
2023/05/28 13:35:29;;;;;;;;;;;20.30;59.40;;;;;;6265147;28;19936;-69
2023/05/28 13:38:30;;;;;;;;;;;20.30;59.50;;;;;;6248567;28;19979;-70
2023/05/28 13:41:31;;;;;;;;;;;20.40;59.40;;;;;;6268554;28;19909;-70
2023/05/28 13:44:32;;;;;;;;;;;20.50;59.50;;;;;;6269267;28;20371;-70
2023/05/28 13:47:32;;;;;;;;;;;20.40;59.30;;;;;;6269439;28;19960;-70
2023/05/28 13:50:33;;;;;;;;;;;20.40;59.40;;;;;;6269006;28;19955;-69
2023/05/28 13:53:34;;;;;;;;;;;20.40;60.30;;;;;;6268750;28;19987;-70
2023/05/28 13:56:34;;;;;;;;;;;20.30;59.50;;;;;;6268822;28;19913;-70
2023/05/28 13:59:35;;;;;;;;;;;20.40;59.60;;;;;;6269029;28;19913;-70
2023/05/28 14:02:36;;;;;;;;;;;20.40;59.60;;;;;;6268478;28;19920;-70
2023/05/28 14:05:36;;;;;;;;;;;20.30;59.50;;;;;;6268832;28;19912;-70
2023/05/28 14:08:37;;;;;;;;;;;20.30;59.50;;;;;;6268616;28;19940;-70
2023/05/28 14:11:37;;;;;;;;;;;20.30;59.50;;;;;;6268847;28;19992;-70
2023/05/28 14:14:38;;;;;;;;;;;20.30;59.50;;;;;;6268439;28;19909;-70
2023/05/28 14:17:38;;;;;;;;;;;20.30;59.50;;;;;;6268527;28;19963;-70
2023/05/28 14:20:39;;;;;;;;;;;20.30;59.50;;;;;;6268876;28;20398;-70
2023/05/28 14:23:39;;;;;;;;;;;20.30;59.50;;;;;;6268010;28;19916;-70
2023/05/28 14:26:40;;;;;;;;;;;20.30;59.50;;;;;;6268484;28;19909;-70
2023/05/28 14:29:40;;;;;;;;;;;20.30;59.50;;;;;;6268445;28;19913;-70
2023/05/28 14:32:41;;;;;;;;;;;20.40;59.60;;;;;;6267860;28;20579;-70
2023/05/28 14:35:41;;;;;;;;;;;20.40;59.60;;;;;;6268266;28;19919;-70
2023/05/28 14:38:42;;;;;;;;;;;20.30;59.50;;;;;;6268071;28;19919;-70
2023/05/28 14:41:42;;;;;;;;;;;20.30;59.60;;;;;;6268080;28;19909;-70
2023/05/28 14:44:43;;;;;;;;;;;20.30;59.60;;;;;;6267609;28;19982;-70
2023/05/28 14:47:43;;;;;;;;;;;20.30;59.60;;;;;;6267826;28;19913;-70
2023/05/28 14:50:44;;;;;;;;;;;20.30;59.70;;;;;;6268269;28;19916;-70
2023/05/28 14:53:45;;;;;;;;;;;20.30;59.70;;;;;;6267323;28;19964;-70
2023/05/28 14:56:47;;;;;;;;;;;20.30;59.70;;;;;;6263167;28;20140;-70
2023/05/28 14:59:48;;;;;;;;;;;20.30;59.80;;;;;;6267398;28;19966;-70
2023/05/28 15:02:49;;;;;;;;;;;20.30;59.80;;;;;;6267494;28;19920;-70
2023/05/28 15:05:50;;;;;;;;;;;20.20;59.70;;;;;;6268137;28;19909;-70
2023/05/28 15:08:50;;;;;;;;;;;20.30;59.80;;;;;;6267712;28;19916;-70
2023/05/28 15:11:50;;;;;;;;;;;20.20;59.80;;;;;;6268021;28;19909;-70
2023/05/28 15:14:51;;;;;;;;;;;20.20;59.80;;;;;;6267140;28;19974;-70
2023/05/28 15:17:54;;;;;;;;;;;20.20;59.80;;;;;;6267839;28;19928;-70
2023/05/28 15:20:54;;;;;;;;;;;20.20;59.80;;;;;;6267834;28;19956;-70
2023/05/28 15:23:55;;;;;;;;;;;20.20;59.80;;;;;;6265923;28;20348;-70
2023/05/28 15:26:55;;;;;;;;;;;20.20;59.80;;;;;;6268127;28;19916;-70
2023/05/28 15:29:56;;;;;;;;;;;20.20;59.90;;;;;;6267536;28;19919;-70
2023/05/28 15:33:00;;;;;;;;;;;20.20;59.90;;;;;;6267239;28;20356;-69
2023/05/28 15:36:00;;;;;;;;;;;20.20;59.90;;;;;;6267198;28;19920;-69
2023/05/28 15:39:01;;;;;;;;;;;20.20;59.90;;;;;;6267294;28;20509;-69
2023/05/28 15:42:05;;;;;;;;;;;20.20;60.00;;;;;;6267643;28;20398;-69
2023/05/28 15:45:06;;;;;;;;;;;20.20;59.90;;;;;;6250532;28;19920;-69
2023/05/28 15:48:06;;;;;;;;;;;20.20;60.50;;;;;;6267583;28;19915;-69
2023/05/28 15:51:07;;;;;;;;;;;20.40;59.60;;;;;;6267603;28;20299;-69
2023/05/28 15:54:07;;;;;;;;;;;20.40;59.60;;;;;;6264699;28;19974;-69
2023/05/28 15:57:08;;;;;;;;;;;20.40;59.50;;;;;;6265850;28;19924;-69
2023/05/28 16:00:09;;;;;;;;;;;20.30;59.50;;;;;;6265675;28;19916;-69
2023/05/28 16:03:13;;;;;;;;;;;20.40;59.70;;;;;;6267101;28;19916;-69
2023/05/28 16:06:13;;;;;;;;;;;20.30;59.70;;;;;;6269990;28;19913;-69
2023/05/28 16:09:14;;;;;;;;;;;20.30;59.60;;;;;;6269221;28;19909;-69
2023/05/28 16:12:15;;;;;;;;;;;20.30;59.60;;;;;;6270523;28;19908;-69
2023/05/28 16:15:16;;;;;;;;;;;20.30;59.60;;;;;;6269249;28;19930;-69
2023/05/28 16:18:18;;;;;;;;;;;20.30;59.70;;;;;;6270228;28;19909;-70
2023/05/28 16:21:18;;;;;;;;;;;20.30;59.70;;;;;;6269777;28;19920;-69
2023/05/28 16:24:19;;;;;;;;;;;20.30;60.40;;;;;;6269348;28;19970;-69
2023/05/28 16:27:20;;;;;;;;;;;20.40;59.80;;;;;;6269318;28;20017;-69
2023/05/28 16:30:21;;;;;;;;;;;20.30;59.60;;;;;;6269466;28;19908;-69
2023/05/28 16:33:22;;;;;;;;;;;20.30;59.60;;;;;;6269563;28;20383;-69
2023/05/28 16:36:22;;;;;;;;;;;20.30;59.60;;;;;;6269537;28;19913;-69
2023/05/28 16:39:23;;;;;;;;;;;20.30;60.40;;;;;;6252166;28;20240;-69
2023/05/28 16:42:24;;;;;;;;;;;20.30;59.60;;;;;;6262192;28;19909;-68
2023/05/28 16:45:25;;;;;;;;;;;20.40;59.80;;;;;;6259026;28;19920;-69
2023/05/28 16:48:26;;;;;;;;;;;20.40;59.70;;;;;;6269371;28;20348;-69
2023/05/28 16:51:28;;;;;;;;;;;20.40;59.70;;;;;;6269424;28;19916;-70
2023/05/28 16:54:29;;;;;;;;;;;20.40;59.70;;;;;;6268745;28;20399;-69
2023/05/28 16:57:30;;;;;;;;;;;20.40;59.70;;;;;;6268715;28;19924;-70
2023/05/28 17:00:30;;;;;;;;;;;20.30;59.60;;;;;;6267807;28;19913;-69
2023/05/28 17:03:31;;;;;;;;;;;20.40;59.70;;;;;;6268152;28;19924;-69
2023/05/28 17:06:32;;;;;;;;;;;20.40;59.70;;;;;;6268612;28;20419;-69
2023/05/28 17:09:33;;;;;;;;;;;20.40;59.70;;;;;;6268919;28;19912;-69
2023/05/28 17:12:33;;;;;;;;;;;20.40;59.70;;;;;;6269069;28;19920;-69
2023/05/28 17:15:34;;;;;;;;;;;20.30;59.70;;;;;;6252394;28;19936;-69
2023/05/28 17:18:34;;;;;;;;;;;20.30;59.60;;;;;;6269306;28;19919;-69
2023/05/28 17:21:36;;;;;;;;;;;20.40;59.70;;;;;;6268148;28;20480;-70
2023/05/28 17:24:36;;;;;;;;;;;20.40;59.70;;;;;;6267057;28;20010;-69
2023/05/28 17:27:37;;;;;;;;;;;20.40;59.70;;;;;;6268227;28;20264;-69
2023/05/28 17:30:37;;;;;;;;;;;20.30;59.60;;;;;;6268346;28;19913;-69
2023/05/28 17:33:37;;;;;;;;;;;20.40;59.70;;;;;;6268376;28;20291;-70